createdAt,value
2023-01-13T00:02:24.580Z,100.00
2023-01-13T00:04:55.221Z,100.00
2023-01-13T00:07:25.721Z,100.00
2023-01-13T00:09:56.464Z,100.00
2023-01-13T00:12:26.918Z,100.00
2023-01-13T00:14:57.505Z,100.00
2023-01-13T00:17:28.081Z,99.57
2023-01-13T00:19:58.771Z,99.38
2023-01-13T00:22:29.257Z,99.47
2023-01-13T00:24:59.866Z,99.06
2023-01-13T00:27:30.457Z,99.98
2023-01-13T00:30:01.039Z,99.29
2023-01-13T00:32:31.619Z,99.56
2023-01-13T00:35:02.256Z,99.25
2023-01-13T00:37:32.809Z,99.14
2023-01-13T00:40:03.394Z,98.26
2023-01-13T00:42:33.982Z,98.82
2023-01-13T00:45:04.572Z,98.49
2023-01-13T00:47:35.147Z,98.72
2023-01-13T00:50:05.821Z,98.11
2023-01-13T00:52:36.354Z,97.77
2023-01-13T00:55:06.990Z,98.04
2023-01-13T00:57:37.536Z,97.59
2023-01-13T01:00:08.267Z,97.91
2023-01-13T01:02:38.826Z,96.81
2023-01-13T01:05:09.358Z,97.08
2023-01-13T01:07:39.929Z,97.53
2023-01-13T01:10:10.549Z,97.15
2023-01-13T01:12:41.128Z,96.88
2023-01-13T01:15:11.777Z,97.37
2023-01-13T01:17:42.348Z,97.23
2023-01-13T01:20:12.992Z,97.37
2023-01-13T01:22:43.555Z,97.28
2023-01-13T01:25:14.183Z,97.56
2023-01-13T01:27:44.487Z,97.55
2023-01-13T01:30:15.256Z,97.43
2023-01-13T01:32:45.707Z,97.03
2023-01-13T01:35:16.389Z,97.38
2023-01-13T01:37:46.659Z,97.75
2023-01-13T01:40:17.273Z,97.00
2023-01-13T01:42:47.866Z,98.71
2023-01-13T01:45:18.138Z,99.02
2023-01-13T01:47:48.711Z,99.32
2023-01-13T01:50:19.355Z,97.86
2023-01-13T01:52:49.925Z,97.45
2023-01-13T01:55:20.580Z,97.33
2023-01-13T01:57:51.148Z,97.95
2023-01-13T02:00:21.488Z,97.66
2023-01-13T02:02:52.107Z,98.03
2023-01-13T02:05:22.742Z,96.86
2023-01-13T02:07:53.329Z,97.29
2023-01-13T02:10:23.999Z,96.60
2023-01-13T02:12:54.575Z,96.45
2023-01-13T02:15:25.213Z,96.96
2023-01-13T02:17:55.839Z,96.54
2023-01-13T02:20:26.464Z,96.59
2023-01-13T02:22:56.780Z,96.68
2023-01-13T02:25:27.424Z,97.03
2023-01-13T02:27:58.124Z,97.03
2023-01-13T02:30:28.789Z,96.42
2023-01-13T02:32:59.280Z,96.52
2023-01-13T02:35:29.908Z,97.10
2023-01-13T02:38:00.567Z,96.60
2023-01-13T02:40:31.214Z,97.03
2023-01-13T02:43:01.798Z,97.21
2023-01-13T02:45:32.488Z,96.96
2023-01-13T02:48:03.086Z,96.73
2023-01-13T02:50:33.350Z,97.99
2023-01-13T02:53:03.690Z,97.56
2023-01-13T02:55:34.386Z,97.02
2023-01-13T02:58:04.703Z,96.78
2023-01-13T03:00:35.244Z,96.48
2023-01-13T03:03:05.873Z,96.88
2023-01-13T03:05:36.564Z,96.43
2023-01-13T03:08:07.172Z,96.24
2023-01-13T03:10:37.880Z,97.27
2023-01-13T03:13:08.481Z,97.85
2023-01-13T03:15:39.132Z,96.99
2023-01-13T03:18:09.784Z,97.20
2023-01-13T03:20:40.431Z,97.18
2023-01-13T03:23:11.202Z,97.13
2023-01-13T03:25:41.129Z,97.53
2023-01-13T03:28:11.747Z,97.02
2023-01-13T03:30:42.417Z,97.57
2023-01-13T03:33:12.996Z,97.35
2023-01-13T03:35:43.661Z,97.19
2023-01-13T03:38:14.291Z,96.97
2023-01-13T03:40:44.979Z,97.00
2023-01-13T03:43:15.592Z,98.19
2023-01-13T03:45:46.304Z,98.41
2023-01-13T03:48:16.907Z,99.32
2023-01-13T03:50:47.625Z,99.54
2023-01-13T03:53:18.228Z,99.66
2023-01-13T03:55:48.910Z,99.17
2023-01-13T03:58:19.594Z,98.49
2023-01-13T04:00:50.143Z,98.80
2023-01-13T04:03:20.493Z,99.23
2023-01-13T04:05:51.146Z,98.63
2023-01-13T04:08:21.744Z,97.89
2023-01-13T04:10:52.387Z,97.56
2023-01-13T04:13:22.993Z,97.79
2023-01-13T04:15:53.697Z,98.26
2023-01-13T04:18:24.269Z,97.69
2023-01-13T04:20:54.902Z,97.97
2023-01-13T04:23:25.510Z,97.98
2023-01-13T04:25:55.913Z,98.27
2023-01-13T04:28:26.480Z,98.44
2023-01-13T04:30:57.449Z,97.86
2023-01-13T04:33:27.937Z,97.82
2023-01-13T04:35:58.575Z,98.50
2023-01-13T04:38:29.181Z,98.21
2023-01-13T04:40:59.569Z,97.97
2023-01-13T04:43:29.884Z,97.52
2023-01-13T04:46:00.591Z,97.38
2023-01-13T04:48:31.151Z,96.58
2023-01-13T04:51:01.826Z,96.98
2023-01-13T04:53:32.446Z,96.71
2023-01-13T04:56:03.146Z,96.84
2023-01-13T04:58:33.728Z,96.14
2023-01-13T05:01:04.401Z,97.58
2023-01-13T05:03:35.005Z,97.95
2023-01-13T05:06:05.677Z,97.69
2023-01-13T05:08:36.291Z,97.01
2023-01-13T05:11:06.623Z,96.24
2023-01-13T05:13:37.237Z,97.41
2023-01-13T05:16:10.533Z,96.96
2023-01-13T05:18:38.533Z,97.25
2023-01-13T05:21:09.210Z,98.30
2023-01-13T05:23:39.838Z,97.84
2023-01-13T05:26:10.527Z,98.91
2023-01-13T05:28:41.116Z,98.02
2023-01-13T05:31:11.874Z,98.70
2023-01-13T05:33:42.393Z,96.81
2023-01-13T05:36:12.760Z,97.77
2023-01-13T05:38:43.392Z,98.16
2023-01-13T05:41:14.279Z,97.87
2023-01-13T05:43:44.375Z,97.39
2023-01-13T05:46:14.881Z,96.81
2023-01-13T05:48:45.293Z,96.85
2023-01-13T05:51:15.722Z,96.74
2023-01-13T05:53:46.313Z,96.24
2023-01-13T05:56:16.991Z,97.63
2023-01-13T05:58:48.061Z,97.19
2023-01-13T06:01:18.010Z,97.39
2023-01-13T06:03:48.609Z,96.07
2023-01-13T06:06:19.277Z,96.40
2023-01-13T06:08:49.916Z,97.03
2023-01-13T06:11:20.247Z,97.79
2023-01-13T06:13:50.882Z,98.43
2023-01-13T06:16:21.598Z,97.43
2023-01-13T06:18:52.166Z,97.73
2023-01-13T06:21:22.833Z,97.08
2023-01-13T06:23:53.473Z,96.42
2023-01-13T06:26:24.242Z,96.96
2023-01-13T06:28:54.781Z,95.79
2023-01-13T06:31:25.546Z,95.74
2023-01-13T06:33:56.087Z,95.62
2023-01-13T06:36:26.763Z,96.85
2023-01-13T06:38:57.413Z,96.71
2023-01-13T06:41:28.018Z,95.96
2023-01-13T06:43:58.651Z,95.42
2023-01-13T06:46:29.494Z,95.02
2023-01-13T06:48:59.917Z,95.03
2023-01-13T06:51:30.566Z,94.59
2023-01-13T06:54:01.182Z,95.33
2023-01-13T06:56:31.849Z,95.24
2023-01-13T06:59:02.262Z,94.60
2023-01-13T07:01:33.004Z,94.76
2023-01-13T07:04:03.451Z,95.33
2023-01-13T07:06:34.096Z,94.45
2023-01-13T07:09:06.759Z,94.76
2023-01-13T07:11:35.392Z,94.61
2023-01-13T07:14:06.057Z,94.68
2023-01-13T07:16:36.694Z,94.09
2023-01-13T07:19:07.285Z,94.82
2023-01-13T07:21:37.935Z,94.90
2023-01-13T07:24:08.681Z,94.95
2023-01-13T07:26:39.234Z,94.84
2023-01-13T07:29:09.850Z,94.59
2023-01-13T07:31:40.567Z,94.80
2023-01-13T07:34:11.118Z,94.42
2023-01-13T07:36:41.768Z,94.44
2023-01-13T07:39:12.395Z,94.38
2023-01-13T07:41:43.054Z,94.51
2023-01-13T07:44:13.662Z,94.40
2023-01-13T07:46:44.310Z,93.94
2023-01-13T07:49:14.927Z,94.63
2023-01-13T07:51:45.556Z,93.60
2023-01-13T07:54:16.181Z,95.06
2023-01-13T07:56:46.904Z,94.63
2023-01-13T07:59:17.434Z,94.96
2023-01-13T08:01:48.183Z,93.63
2023-01-13T08:04:18.681Z,93.76
2023-01-13T08:06:49.316Z,94.60
2023-01-13T08:09:19.953Z,94.01
2023-01-13T08:11:50.588Z,94.09
2023-01-13T08:14:21.184Z,93.82
2023-01-13T08:16:51.920Z,93.97
2023-01-13T08:19:22.438Z,93.58
2023-01-13T08:21:53.104Z,93.18
2023-01-13T08:24:23.717Z,93.56
2023-01-13T08:26:54.346Z,93.87
2023-01-13T08:29:24.970Z,93.39
2023-01-13T08:31:55.636Z,94.36
2023-01-13T08:34:26.267Z,94.07
2023-01-13T08:36:56.920Z,94.13
2023-01-13T08:39:27.524Z,94.33
2023-01-13T08:41:58.201Z,94.02
2023-01-13T08:44:28.832Z,95.71
2023-01-13T08:46:59.475Z,94.68
2023-01-13T08:49:30.084Z,94.91
2023-01-13T08:52:00.726Z,95.84
2023-01-13T08:54:31.320Z,100.00
2023-01-13T08:57:02.056Z,93.55
2023-01-13T08:59:32.558Z,94.17
2023-01-13T09:02:03.392Z,94.76
2023-01-13T09:04:33.837Z,95.25
2023-01-13T09:07:04.411Z,93.91
2023-01-13T09:09:34.832Z,94.23
2023-01-13T09:12:05.044Z,95.20
2023-01-13T09:14:35.632Z,95.27
2023-01-13T09:17:06.291Z,94.63
2023-01-13T09:19:36.617Z,94.22
2023-01-13T09:22:07.438Z,94.23
2023-01-13T09:24:37.567Z,94.57
2023-01-13T09:27:08.208Z,95.73
2023-01-13T09:29:38.809Z,94.54
2023-01-13T09:32:09.664Z,95.21
2023-01-13T09:34:40.273Z,95.42
2023-01-13T09:37:10.899Z,97.35
2023-01-13T09:39:41.500Z,97.03
2023-01-13T09:42:12.157Z,96.79
2023-01-13T09:44:42.784Z,96.91
2023-01-13T09:47:14.230Z,97.20
2023-01-13T09:49:44.011Z,96.18
2023-01-13T09:52:14.691Z,96.25
2023-01-13T09:54:45.280Z,96.96
2023-01-13T09:57:15.953Z,96.06
2023-01-13T09:59:46.546Z,96.37
2023-01-13T10:02:17.193Z,97.06
2023-01-13T10:04:47.917Z,96.89
2023-01-13T10:07:18.899Z,96.02
2023-01-13T10:09:49.067Z,95.89
2023-01-13T10:12:19.720Z,97.01
2023-01-13T10:14:50.311Z,97.18
2023-01-13T10:17:20.956Z,97.19
2023-01-13T10:19:51.546Z,95.58
2023-01-13T10:22:21.939Z,96.34
2023-01-13T10:24:52.717Z,95.40
2023-01-13T10:27:23.040Z,95.36
2023-01-13T10:29:53.487Z,95.33
2023-01-13T10:32:23.785Z,95.33
2023-01-13T10:34:54.446Z,95.86
2023-01-13T10:37:25.017Z,96.63
2023-01-13T10:39:55.621Z,97.04
2023-01-13T10:42:26.284Z,96.73
2023-01-13T10:44:56.981Z,96.22
2023-01-13T10:47:27.527Z,95.73
2023-01-13T10:49:58.117Z,96.78
2023-01-13T10:52:28.847Z,96.99
2023-01-13T10:54:59.369Z,97.66
2023-01-13T10:57:30.013Z,98.95
2023-01-13T11:00:00.596Z,97.29
2023-01-13T11:02:31.311Z,96.75
2023-01-13T11:05:01.530Z,97.54
2023-01-13T11:07:32.221Z,96.63
2023-01-13T11:10:02.793Z,96.95
2023-01-13T11:12:33.430Z,97.13
2023-01-13T11:15:04.110Z,97.84
2023-01-13T11:17:34.666Z,97.61
2023-01-13T11:20:05.279Z,97.45
2023-01-13T11:22:36.028Z,98.70
2023-01-13T11:25:06.207Z,97.81
2023-01-13T11:27:36.869Z,96.91
2023-01-13T11:30:07.439Z,97.21
2023-01-13T11:32:38.090Z,96.69
2023-01-13T11:35:08.678Z,97.24
2023-01-13T11:37:39.308Z,97.65
2023-01-13T11:40:09.907Z,98.20
2023-01-13T11:42:40.561Z,98.12
2023-01-13T11:45:11.143Z,97.11
2023-01-13T11:47:41.825Z,97.39
2023-01-13T11:50:12.420Z,96.70
2023-01-13T11:52:43.030Z,96.95
2023-01-13T11:55:13.608Z,97.40
2023-01-13T11:57:44.275Z,97.89
2023-01-13T12:00:14.877Z,97.83
2023-01-13T12:02:45.477Z,97.53
2023-01-13T12:05:16.077Z,97.60
2023-01-13T12:07:46.709Z,98.27
2023-01-13T12:10:17.279Z,96.83
2023-01-13T12:12:47.923Z,96.41
2023-01-13T12:15:18.509Z,96.88
2023-01-13T12:17:49.125Z,97.22
2023-01-13T12:20:19.739Z,97.20
2023-01-13T12:22:50.372Z,97.55
2023-01-13T12:25:21.002Z,96.91
2023-01-13T12:27:51.626Z,96.61
2023-01-13T12:30:22.278Z,97.14
2023-01-13T12:32:52.875Z,97.21
2023-01-13T12:35:23.417Z,97.68
2023-01-13T12:37:54.180Z,97.80
2023-01-13T12:40:24.655Z,96.66
2023-01-13T12:42:55.445Z,97.04
2023-01-13T12:45:25.924Z,97.48
2023-01-13T12:47:56.527Z,97.68
2023-01-13T12:50:27.126Z,97.48
2023-01-13T12:52:57.744Z,98.51
2023-01-13T12:55:28.344Z,98.42
2023-01-13T12:57:59.008Z,97.29
2023-01-13T13:00:29.587Z,98.39
2023-01-13T13:02:59.907Z,97.92
2023-01-13T13:05:30.456Z,97.19
2023-01-13T13:08:01.092Z,96.33
2023-01-13T13:10:31.701Z,97.29
2023-01-13T13:13:02.093Z,97.28
2023-01-13T13:15:32.699Z,98.45
2023-01-13T13:18:03.285Z,99.87
2023-01-13T13:20:33.874Z,100.00
2023-01-13T13:23:04.505Z,99.33
2023-01-13T13:25:35.168Z,98.11
2023-01-13T13:28:05.747Z,97.88
2023-01-13T13:30:36.136Z,99.65
2023-01-13T13:33:06.658Z,97.95
2023-01-13T13:35:37.251Z,98.28
2023-01-13T13:38:07.909Z,98.59
2023-01-13T13:40:38.478Z,97.66
2023-01-13T13:43:09.288Z,98.10
2023-01-13T13:45:40.278Z,98.39
2023-01-13T13:48:10.365Z,99.71
2023-01-13T13:50:40.480Z,98.45
2023-01-13T13:53:11.269Z,100.00
2023-01-13T13:55:41.938Z,99.81
2023-01-13T13:58:12.570Z,99.67
2023-01-13T14:00:43.116Z,99.26
2023-01-13T14:03:13.838Z,99.69
2023-01-13T14:05:44.448Z,99.55
2023-01-13T14:08:14.735Z,99.52
2023-01-13T14:10:45.496Z,99.12
2023-01-13T14:13:15.941Z,98.74
2023-01-13T14:15:46.568Z,100.00
2023-01-13T14:18:17.109Z,100.00
2023-01-13T14:20:47.722Z,100.00
2023-01-13T14:23:18.353Z,99.54
2023-01-13T14:25:48.930Z,99.66
2023-01-13T14:28:19.588Z,99.31
2023-01-13T14:30:50.235Z,98.54
2023-01-13T14:33:20.773Z,99.20
2023-01-13T14:35:51.351Z,98.79
2023-01-13T14:38:21.964Z,98.76
2023-01-13T14:40:52.562Z,99.23
2023-01-13T14:43:23.251Z,97.70
2023-01-13T14:45:53.783Z,98.62
2023-01-13T14:48:24.453Z,99.27
2023-01-13T14:50:54.985Z,98.51
2023-01-13T14:53:25.608Z,98.27
2023-01-13T14:55:56.202Z,98.70
2023-01-13T14:58:26.856Z,98.08
2023-01-13T15:00:57.489Z,98.51
2023-01-13T15:03:28.044Z,98.18
2023-01-13T15:05:58.640Z,97.44
2023-01-13T15:08:29.355Z,99.69
2023-01-13T15:11:00.084Z,97.34
2023-01-13T15:13:30.626Z,97.08
2023-01-13T15:16:01.139Z,94.97
2023-01-13T15:18:31.936Z,95.77
2023-01-13T15:21:02.028Z,95.38
2023-01-13T15:23:32.708Z,94.92
2023-01-13T15:26:03.243Z,93.98
2023-01-13T15:28:33.533Z,94.37
2023-01-13T15:31:04.208Z,94.44
2023-01-13T15:33:34.752Z,93.73
2023-01-13T15:36:05.311Z,94.12
2023-01-13T15:38:35.948Z,93.84
2023-01-13T15:41:06.534Z,93.19
2023-01-13T15:43:37.249Z,92.83
2023-01-13T15:46:07.785Z,92.41
2023-01-13T15:48:38.109Z,92.36
2023-01-13T15:51:08.664Z,92.84
2023-01-13T15:53:39.411Z,92.56
2023-01-13T15:56:10.027Z,92.26
2023-01-13T15:58:40.505Z,92.22
2023-01-13T16:01:11.322Z,92.64
2023-01-13T16:03:41.508Z,92.16
2023-01-13T16:06:12.102Z,92.36
2023-01-13T16:08:42.683Z,92.52
2023-01-13T16:11:12.921Z,92.04
2023-01-13T16:13:43.284Z,92.44
2023-01-13T16:16:13.900Z,91.90
2023-01-13T16:18:44.470Z,91.39
2023-01-13T16:21:15.074Z,91.26
2023-01-13T16:23:45.705Z,91.42
2023-01-13T16:26:15.999Z,91.25
2023-01-13T16:28:46.746Z,91.40
2023-01-13T16:31:17.283Z,90.86
2023-01-13T16:33:47.860Z,91.19
2023-01-13T16:36:18.465Z,91.62
2023-01-13T16:38:49.119Z,90.99
2023-01-13T16:41:19.695Z,90.75
2023-01-13T16:43:50.353Z,91.44
2023-01-13T16:46:20.922Z,91.32
2023-01-13T16:48:51.709Z,91.03
2023-01-13T16:51:22.138Z,91.89
2023-01-13T16:56:28.526Z,92.18
2023-01-13T16:58:53.998Z,92.16
2023-01-13T17:01:24.683Z,92.18
2023-01-13T17:03:55.164Z,91.59
2023-01-13T17:06:25.771Z,92.85
2023-01-13T17:08:56.362Z,92.56
2023-01-13T17:11:32.099Z,92.22
2023-01-13T17:16:28.826Z,92.72
2023-01-13T17:18:58.761Z,92.18
2023-01-13T17:21:29.530Z,92.13
2023-01-13T17:23:59.955Z,92.33
2023-01-13T17:26:30.599Z,92.54
2023-01-13T17:29:01.178Z,93.92
2023-01-13T17:31:31.636Z,93.81
2023-01-13T17:34:02.034Z,93.79
2023-01-13T17:36:32.626Z,94.28
2023-01-13T17:39:03.220Z,93.39
2023-01-13T17:41:33.828Z,94.60
2023-01-13T17:44:04.504Z,94.05
2023-01-13T17:46:35.040Z,93.67
2023-01-13T17:49:05.609Z,94.13
2023-01-13T17:51:36.213Z,93.43
2023-01-13T17:54:06.809Z,92.64
2023-01-13T17:56:37.422Z,94.15
2023-01-13T17:59:10.091Z,93.54
2023-01-13T18:01:38.900Z,93.53
2023-01-13T18:04:09.340Z,94.04
2023-01-13T18:06:40.396Z,94.30
2023-01-13T18:11:41.799Z,93.99
2023-01-13T18:14:11.282Z,94.60
2023-01-13T18:16:41.934Z,94.40
2023-01-13T18:19:12.458Z,95.06
2023-01-13T18:21:43.076Z,96.24
2023-01-13T18:24:13.396Z,95.99
2023-01-13T18:26:43.987Z,97.68
2023-01-13T18:29:14.592Z,99.18
2023-01-13T18:31:45.395Z,99.61
2023-01-13T18:34:15.867Z,100.00
2023-01-13T18:36:46.507Z,99.78
2023-01-13T18:39:17.136Z,100.00
2023-01-13T18:41:47.790Z,100.00
2023-01-13T18:44:18.113Z,100.00
2023-01-13T18:46:48.762Z,100.00
2023-01-13T18:49:19.499Z,100.00
2023-01-13T18:51:50.053Z,99.14
2023-01-13T18:54:20.758Z,99.37
2023-01-13T18:56:51.332Z,98.67
2023-01-13T18:59:21.967Z,98.54
2023-01-13T19:01:52.745Z,98.25
2023-01-13T19:04:23.285Z,99.22
2023-01-13T19:06:53.965Z,98.92
2023-01-13T19:09:24.492Z,99.84
2023-01-13T19:11:54.990Z,99.27
2023-01-13T19:14:25.617Z,100.00
2023-01-13T19:16:56.290Z,98.66
2023-01-13T19:19:26.922Z,99.08
2023-01-13T19:21:57.578Z,99.79
2023-01-13T19:24:28.332Z,99.34
2023-01-13T19:26:59.288Z,98.33
2023-01-13T19:32:00.334Z,98.19
2023-01-13T19:34:30.845Z,98.11
2023-01-13T19:37:01.531Z,98.14
2023-01-13T19:39:32.230Z,97.53
2023-01-13T19:42:02.834Z,97.90
2023-01-13T19:44:33.472Z,98.60
2023-01-13T19:47:04.137Z,98.23
2023-01-13T19:49:34.784Z,98.57
2023-01-13T19:52:05.457Z,99.24
2023-01-13T19:54:36.107Z,98.09
2023-01-13T19:57:06.769Z,98.31
2023-01-13T19:59:37.498Z,98.07
2023-01-13T20:02:08.126Z,98.02
2023-01-13T20:04:38.716Z,97.51
2023-01-13T20:07:09.125Z,97.54
2023-01-13T20:09:39.744Z,97.52
2023-01-13T20:12:10.425Z,97.55
2023-01-13T20:14:41.164Z,98.94
2023-01-13T20:17:11.767Z,98.56
2023-01-13T20:19:42.417Z,99.14
2023-01-13T20:22:13.087Z,98.93
2023-01-13T20:24:43.803Z,98.49
2023-01-13T20:27:14.067Z,98.16
2023-01-13T20:29:44.669Z,97.82
2023-01-13T20:32:15.366Z,98.15
2023-01-13T20:34:45.988Z,97.62
2023-01-13T20:37:16.663Z,98.23
2023-01-13T20:39:47.400Z,96.61
2023-01-13T20:42:18.032Z,96.42
2023-01-13T20:44:48.647Z,96.15
2023-01-13T20:47:19.251Z,95.87
2023-01-13T20:49:49.870Z,96.03
2023-01-13T20:52:20.538Z,95.73
2023-01-13T20:54:51.166Z,95.68
2023-01-13T20:57:21.799Z,95.49
2023-01-13T20:59:52.425Z,95.92
2023-01-13T21:02:23.086Z,95.27
2023-01-13T21:04:53.711Z,95.24
2023-01-13T21:07:24.354Z,95.88
2023-01-13T21:09:55.061Z,95.56
2023-01-13T21:12:25.641Z,95.66
2023-01-13T21:14:56.351Z,95.56
2023-01-13T21:17:27.099Z,100.00
2023-01-13T21:19:57.253Z,97.06
2023-01-13T21:22:27.902Z,95.47
2023-01-13T21:24:58.518Z,95.17
2023-01-13T21:27:29.178Z,95.06
2023-01-13T21:29:59.799Z,95.11
2023-01-13T21:32:30.481Z,95.46
2023-01-13T21:35:01.081Z,94.25
2023-01-13T21:37:31.748Z,94.57
2023-01-13T21:40:02.467Z,94.93
2023-01-13T21:42:33.046Z,96.29
2023-01-13T21:45:03.719Z,95.52
2023-01-13T21:47:34.394Z,96.39
2023-01-13T21:50:05.098Z,95.91
2023-01-13T21:52:35.670Z,96.88
2023-01-13T21:55:06.344Z,96.29
2023-01-13T21:57:36.978Z,96.25
2023-01-13T22:00:07.715Z,96.84
2023-01-13T22:02:38.405Z,96.43
2023-01-13T22:05:08.984Z,97.46
2023-01-13T22:07:39.590Z,97.41
2023-01-13T22:10:10.368Z,96.95
2023-01-13T22:12:40.910Z,96.49
2023-01-13T22:15:11.607Z,95.85
2023-01-13T22:17:42.202Z,96.24
2023-01-13T22:20:12.805Z,95.85
2023-01-13T22:22:43.446Z,95.58
2023-01-13T22:25:14.140Z,95.81
2023-01-13T22:27:44.811Z,95.93
2023-01-13T22:30:15.366Z,95.67
2023-01-13T22:32:45.772Z,95.40
2023-01-13T22:35:16.377Z,95.25
2023-01-13T22:37:47.031Z,95.34
2023-01-13T22:40:17.663Z,94.90
2023-01-13T22:42:48.357Z,95.69
2023-01-13T22:45:18.964Z,95.39
2023-01-13T22:47:49.668Z,95.28
2023-01-13T22:50:20.349Z,95.18
2023-01-13T22:52:50.923Z,95.07
2023-01-13T22:55:21.594Z,95.49
2023-01-13T22:57:52.210Z,96.63
2023-01-13T23:00:22.983Z,95.36
2023-01-13T23:02:53.538Z,96.30
2023-01-13T23:05:24.151Z,95.70
2023-01-13T23:07:54.870Z,95.63
2023-01-13T23:10:25.448Z,95.84
2023-01-13T23:12:56.139Z,95.82
2023-01-13T23:15:26.744Z,95.78
2023-01-13T23:17:57.436Z,95.70
2023-01-13T23:20:28.055Z,95.16
2023-01-13T23:22:58.768Z,96.46
2023-01-13T23:25:29.372Z,96.31
2023-01-13T23:28:00.139Z,96.54
2023-01-13T23:30:30.684Z,96.28
2023-01-13T23:33:01.385Z,96.45
2023-01-13T23:35:32.027Z,97.03
2023-01-13T23:38:02.649Z,96.25
2023-01-13T23:40:33.293Z,96.20
2023-01-13T23:43:03.967Z,95.15
2023-01-13T23:45:34.604Z,96.35
2023-01-13T23:48:05.317Z,97.02
2023-01-13T23:50:35.911Z,96.16
2023-01-13T23:53:06.667Z,96.72
2023-01-13T23:55:37.226Z,96.14
2023-01-13T23:58:07.873Z,96.39
